createdAt,value
2022-11-27T00:00:48.455Z,11.85
2022-11-27T00:03:15.545Z,10.57
2022-11-27T00:05:55.517Z,4.07
2022-11-27T00:08:24.401Z,10.50
2022-11-27T00:10:51.820Z,12.52
2022-11-27T00:13:19.051Z,7.25
2022-11-27T00:15:46.122Z,10.20
2022-11-27T00:18:13.274Z,6.30
2022-11-27T00:20:40.245Z,11.38
2022-11-27T00:23:07.351Z,8.70
2022-11-27T00:25:34.756Z,9.48
2022-11-27T00:28:01.854Z,11.25
2022-11-27T00:30:28.924Z,8.45
2022-11-27T00:32:55.914Z,10.45
2022-11-27T00:35:22.799Z,10.00
2022-11-27T00:37:50.144Z,10.35
2022-11-27T00:40:17.173Z,13.95
2022-11-27T00:42:44.141Z,14.63
2022-11-27T00:45:11.246Z,14.27
2022-11-27T00:47:38.230Z,10.88
2022-11-27T00:50:05.733Z,20.35
2022-11-27T00:52:32.685Z,12.37
2022-11-27T00:54:59.581Z,12.88
2022-11-27T00:57:26.472Z,11.63
2022-11-27T00:59:53.341Z,11.45
2022-11-27T01:02:20.354Z,12.07
2022-11-27T01:04:48.561Z,14.40
2022-11-27T01:07:15.657Z,13.40
2022-11-27T01:09:42.569Z,16.35
2022-11-27T01:12:09.738Z,13.85
2022-11-27T01:14:36.914Z,14.70
2022-11-27T01:17:03.935Z,15.50
2022-11-27T01:19:30.778Z,8.73
2022-11-27T01:21:57.680Z,11.68
2022-11-27T01:24:24.613Z,14.90
2022-11-27T01:26:51.569Z,12.93
2022-11-27T01:29:18.544Z,9.50
2022-11-27T01:31:45.527Z,11.88
2022-11-27T01:34:15.942Z,9.82
2022-11-27T01:36:43.148Z,12.70
2022-11-27T01:39:18.680Z,9.60
2022-11-27T01:41:47.877Z,8.55
2022-11-27T01:44:24.215Z,5.80
2022-11-27T01:47:00.737Z,8.05
2022-11-27T01:49:46.339Z,7.07
2022-11-27T01:52:13.699Z,6.65
2022-11-27T01:54:56.275Z,6.62
2022-11-27T01:57:35.987Z,4.45
2022-11-27T02:00:07.364Z,3.70
2022-11-27T02:02:34.416Z,3.50
2022-11-27T02:05:01.390Z,3.42
2022-11-27T02:07:28.473Z,4.57
2022-11-27T02:09:55.522Z,4.78
2022-11-27T02:12:33.289Z,4.87
2022-11-27T02:15:28.239Z,3.17
2022-11-27T02:18:18.619Z,3.12
2022-11-27T02:21:06.337Z,2.72
2022-11-27T02:24:02.291Z,5.05
2022-11-27T02:26:54.228Z,3.12
2022-11-27T02:29:24.510Z,1.40
2022-11-27T02:32:11.217Z,3.97
2022-11-27T02:35:03.336Z,1.30
2022-11-27T02:37:41.234Z,1.55
2022-11-27T02:40:29.997Z,5.32
2022-11-27T02:43:03.525Z,2.45
2022-11-27T02:45:57.998Z,2.65
2022-11-27T02:48:31.280Z,3.17
2022-11-27T02:50:58.249Z,1.40
2022-11-27T02:53:33.514Z,1.10
2022-11-27T02:56:03.282Z,3.60
2022-11-27T02:58:30.455Z,2.33
2022-11-27T03:00:58.202Z,2.72
2022-11-27T03:03:29.842Z,3.10
2022-11-27T03:06:01.526Z,5.78
2022-11-27T03:08:46.240Z,4.50
2022-11-27T03:11:15.506Z,6.80
2022-11-27T03:14:05.795Z,6.85
2022-11-27T03:16:40.859Z,11.60
2022-11-27T03:19:51.797Z,9.75
2022-11-27T03:22:18.949Z,11.18
2022-11-27T03:24:45.976Z,11.65
2022-11-27T03:27:15.368Z,9.95
2022-11-27T03:29:53.847Z,11.00
2022-11-27T03:32:21.048Z,15.63
2022-11-27T03:34:48.816Z,11.38
2022-11-27T03:37:16.121Z,17.27
2022-11-27T03:39:43.591Z,9.05
2022-11-27T03:42:19.686Z,13.20
2022-11-27T03:44:55.249Z,14.23
2022-11-27T03:47:50.083Z,12.63
2022-11-27T03:50:29.982Z,7.95
2022-11-27T03:53:28.423Z,16.62
2022-11-27T03:56:24.782Z,11.80
2022-11-27T03:59:09.563Z,14.02
2022-11-27T04:01:37.007Z,11.82
2022-11-27T04:04:04.100Z,14.85
2022-11-27T04:06:31.053Z,9.63
2022-11-27T04:08:58.031Z,9.27
2022-11-27T04:11:25.027Z,9.10
2022-11-27T04:13:54.657Z,8.98
2022-11-27T04:16:21.724Z,13.23
2022-11-27T04:18:48.700Z,13.88
2022-11-27T04:21:16.965Z,13.43
2022-11-27T04:23:44.751Z,9.70
2022-11-27T04:26:11.693Z,12.35
2022-11-27T04:28:38.760Z,11.18
2022-11-27T04:31:05.855Z,8.52
2022-11-27T04:33:32.895Z,14.75
2022-11-27T04:35:59.817Z,10.07
2022-11-27T04:38:26.704Z,10.95
2022-11-27T04:40:53.768Z,10.15
2022-11-27T04:43:20.959Z,9.95
2022-11-27T04:45:47.871Z,10.93
2022-11-27T04:48:14.915Z,13.05
2022-11-27T04:50:41.808Z,12.35
2022-11-27T04:53:08.712Z,9.52
2022-11-27T04:55:35.735Z,12.88
2022-11-27T04:58:02.617Z,10.20
2022-11-27T05:00:29.604Z,11.95
2022-11-27T05:02:56.548Z,11.93
2022-11-27T05:05:23.495Z,12.60
2022-11-27T05:07:50.459Z,11.30
2022-11-27T05:10:18.077Z,12.00
2022-11-27T05:12:44.976Z,13.70
2022-11-27T05:15:11.881Z,10.82
2022-11-27T05:17:38.749Z,9.30
2022-11-27T05:20:06.745Z,11.73
2022-11-27T05:22:33.666Z,16.70
2022-11-27T05:25:00.574Z,11.75
2022-11-27T05:27:27.469Z,16.95
2022-11-27T05:29:54.384Z,13.15
2022-11-27T05:32:21.313Z,12.82
2022-11-27T05:34:49.732Z,13.50
2022-11-27T05:37:19.684Z,13.65
2022-11-27T05:39:47.178Z,11.43
2022-11-27T05:42:14.224Z,10.07
2022-11-27T05:44:41.160Z,14.43
2022-11-27T05:47:08.262Z,11.73
2022-11-27T05:49:35.387Z,11.98
2022-11-27T05:52:02.262Z,10.68
2022-11-27T05:54:29.125Z,7.03
2022-11-27T05:56:56.011Z,12.40
2022-11-27T05:59:22.969Z,9.85
2022-11-27T06:01:49.881Z,13.85
2022-11-27T06:04:17.111Z,11.65
2022-11-27T06:06:44.063Z,9.40
2022-11-27T06:09:13.441Z,10.15
2022-11-27T06:11:41.866Z,11.45
2022-11-27T06:14:09.782Z,10.23
2022-11-27T06:16:37.359Z,9.68
2022-11-27T06:19:04.374Z,5.30
2022-11-27T06:21:31.274Z,8.70
2022-11-27T06:23:58.404Z,14.80
2022-11-27T06:26:28.067Z,8.07
2022-11-27T06:28:56.328Z,6.05
2022-11-27T06:31:25.790Z,7.62
2022-11-27T06:33:54.626Z,10.35
2022-11-27T06:36:23.162Z,13.00
2022-11-27T06:38:50.055Z,10.38
2022-11-27T06:41:19.363Z,15.55
2022-11-27T06:43:46.313Z,11.10
2022-11-27T06:46:16.346Z,12.68
2022-11-27T06:48:45.202Z,12.55
2022-11-27T06:51:14.406Z,12.52
2022-11-27T06:53:42.055Z,12.23
2022-11-27T06:56:14.865Z,11.45
2022-11-27T06:58:42.078Z,12.07
2022-11-27T07:01:17.758Z,6.50
2022-11-27T07:03:45.093Z,12.20
2022-11-27T07:06:15.222Z,16.35
2022-11-27T07:08:42.440Z,6.75
2022-11-27T07:11:13.021Z,12.90
2022-11-27T07:13:40.372Z,10.55
2022-11-27T07:16:10.528Z,12.93
2022-11-27T07:18:39.989Z,10.98
2022-11-27T07:21:07.163Z,6.80
2022-11-27T07:23:34.157Z,12.37
2022-11-27T07:26:09.376Z,11.43
2022-11-27T07:28:36.627Z,9.60
2022-11-27T07:31:04.134Z,12.00
2022-11-27T07:33:31.273Z,10.48
2022-11-27T07:36:00.555Z,13.75
2022-11-27T07:38:27.493Z,14.15
2022-11-27T07:40:54.382Z,15.80
2022-11-27T07:43:21.499Z,19.10
2022-11-27T07:45:48.490Z,17.95
2022-11-27T07:48:15.488Z,16.05
2022-11-27T07:50:42.395Z,13.93
2022-11-27T07:53:09.341Z,12.93
2022-11-27T07:55:39.324Z,11.85
2022-11-27T07:58:10.229Z,15.98
2022-11-27T08:00:37.338Z,15.82
2022-11-27T08:03:04.359Z,18.00
2022-11-27T08:05:34.852Z,14.40
2022-11-27T08:08:04.378Z,11.20
2022-11-27T08:10:34.591Z,13.05
2022-11-27T08:13:01.471Z,12.52
2022-11-27T08:15:28.622Z,12.13
2022-11-27T08:17:55.551Z,12.57
2022-11-27T08:20:22.782Z,15.20
2022-11-27T08:22:49.995Z,10.27
2022-11-27T08:25:17.365Z,17.05
2022-11-27T08:27:44.578Z,12.88
2022-11-27T08:30:11.648Z,10.57
2022-11-27T08:32:39.913Z,16.73
2022-11-27T08:35:07.317Z,12.18
2022-11-27T08:37:34.420Z,13.02
2022-11-27T08:40:01.407Z,12.80
2022-11-27T08:42:28.419Z,17.27
2022-11-27T08:44:55.454Z,9.48
2022-11-27T08:47:22.423Z,10.00
2022-11-27T08:49:49.396Z,15.70
2022-11-27T08:52:16.370Z,14.18
2022-11-27T08:54:43.384Z,16.62
2022-11-27T08:57:10.383Z,18.00
2022-11-27T08:59:37.317Z,15.13
2022-11-27T09:02:04.365Z,15.93
2022-11-27T09:04:31.385Z,19.60
2022-11-27T09:06:58.927Z,19.92
2022-11-27T09:09:25.957Z,17.05
2022-11-27T09:11:55.319Z,13.00
2022-11-27T09:14:22.259Z,13.38
2022-11-27T09:16:49.181Z,16.12
2022-11-27T09:19:16.268Z,14.77
2022-11-27T09:21:43.195Z,15.85
2022-11-27T09:24:10.211Z,12.05
2022-11-27T09:26:37.126Z,12.45
2022-11-27T09:29:04.181Z,14.45
2022-11-27T09:31:31.284Z,11.40
2022-11-27T09:33:58.746Z,14.75
2022-11-27T09:36:26.719Z,15.98
2022-11-27T09:38:54.579Z,15.30
2022-11-27T09:41:39.528Z,12.57
2022-11-27T09:44:23.331Z,11.65
2022-11-27T09:46:51.525Z,8.98
2022-11-27T09:49:24.247Z,11.90
2022-11-27T09:52:03.577Z,11.75
2022-11-27T09:55:01.771Z,17.33
2022-11-27T09:57:33.132Z,12.32
2022-11-27T10:00:05.066Z,12.20
2022-11-27T10:02:34.019Z,14.57
2022-11-27T10:05:13.886Z,13.05
2022-11-27T10:07:47.260Z,8.93
2022-11-27T10:10:29.744Z,12.43
2022-11-27T10:13:34.878Z,18.42
2022-11-27T10:16:16.818Z,10.80
2022-11-27T10:19:03.173Z,14.52
2022-11-27T10:21:58.803Z,17.90
2022-11-27T10:24:36.912Z,14.95
2022-11-27T10:27:15.345Z,15.77
2022-11-27T10:29:50.485Z,15.10
2022-11-27T10:35:21.985Z,15.38
2022-11-27T10:38:07.045Z,15.73
2022-11-27T10:40:58.623Z,13.85
2022-11-27T10:43:26.089Z,14.73
2022-11-27T10:46:14.033Z,14.93
2022-11-27T10:48:41.448Z,13.93
2022-11-27T10:51:18.708Z,18.02
2022-11-27T10:53:48.685Z,14.60
2022-11-27T10:56:51.387Z,15.32
2022-11-27T10:59:33.148Z,14.27
2022-11-27T11:02:03.480Z,11.65
2022-11-27T11:04:37.919Z,19.62
2022-11-27T11:07:28.915Z,15.27
2022-11-27T11:09:56.836Z,15.82
2022-11-27T11:12:24.427Z,14.07
2022-11-27T11:14:59.567Z,13.10
2022-11-27T11:17:28.602Z,15.35
2022-11-27T11:19:55.623Z,13.15
2022-11-27T11:22:22.841Z,17.25
2022-11-27T11:24:53.126Z,13.70
2022-11-27T11:27:26.967Z,13.85
2022-11-27T11:29:58.686Z,12.48
2022-11-27T11:32:30.041Z,14.07
2022-11-27T11:35:05.303Z,16.25
2022-11-27T11:37:34.746Z,15.45
2022-11-27T11:40:21.800Z,16.25
2022-11-27T11:42:58.935Z,16.40
2022-11-27T11:45:31.359Z,16.33
2022-11-27T11:48:02.665Z,17.30
2022-11-27T11:51:01.549Z,10.10
2022-11-27T11:53:35.643Z,10.43
2022-11-27T11:56:18.335Z,7.57
2022-11-27T11:58:51.130Z,12.45
2022-11-27T12:01:43.683Z,12.27
2022-11-27T12:04:37.055Z,12.70
2022-11-27T12:07:04.125Z,9.77
2022-11-27T12:09:42.217Z,8.10
2022-11-27T12:12:24.785Z,11.88
2022-11-27T12:15:06.407Z,9.63
2022-11-27T12:17:42.346Z,11.25
2022-11-27T12:20:21.414Z,12.63
2022-11-27T12:23:06.728Z,9.57
2022-11-27T12:25:45.668Z,11.25
2022-11-27T12:28:27.673Z,10.20
2022-11-27T12:30:57.671Z,12.60
2022-11-27T12:33:52.797Z,10.75
2022-11-27T12:36:54.968Z,12.88
2022-11-27T12:39:52.602Z,10.98
2022-11-27T12:42:36.503Z,15.07
2022-11-27T12:45:17.785Z,13.00
2022-11-27T12:47:56.858Z,9.27
2022-11-27T12:50:41.963Z,9.48
2022-11-27T12:53:32.225Z,13.57
2022-11-27T12:56:26.720Z,11.20
2022-11-27T12:59:02.516Z,12.50
2022-11-27T13:01:36.562Z,8.77
2022-11-27T13:04:19.238Z,11.32
2022-11-27T13:07:02.302Z,11.60
2022-11-27T13:09:45.211Z,9.15
2022-11-27T13:12:24.742Z,10.20
2022-11-27T13:14:59.517Z,10.40
2022-11-27T13:17:33.437Z,13.48
2022-11-27T13:20:03.178Z,7.18
2022-11-27T13:22:36.119Z,9.80
2022-11-27T13:25:03.874Z,12.65
2022-11-27T13:27:36.382Z,10.93
2022-11-27T13:30:08.129Z,13.13
2022-11-27T13:32:43.538Z,14.10
2022-11-27T13:35:30.351Z,9.55
2022-11-27T13:38:06.392Z,13.75
2022-11-27T13:40:48.827Z,15.52
2022-11-27T13:43:37.185Z,9.60
2022-11-27T13:46:11.963Z,11.12
2022-11-27T13:48:42.422Z,9.10
2022-11-27T13:51:11.865Z,11.02
2022-11-27T13:53:42.584Z,9.35
2022-11-27T13:56:09.962Z,6.80
2022-11-27T13:58:40.105Z,10.52
2022-11-27T14:01:22.592Z,10.77
2022-11-27T14:03:50.247Z,12.05
2022-11-27T14:06:30.698Z,10.18
2022-11-27T14:09:06.638Z,9.05
2022-11-27T14:11:48.351Z,9.25
2022-11-27T14:14:19.452Z,10.20
2022-11-27T14:16:59.094Z,13.23
2022-11-27T14:19:41.826Z,13.30
2022-11-27T14:22:16.506Z,16.23
2022-11-27T14:24:45.901Z,13.52
2022-11-27T14:27:35.913Z,14.43
2022-11-27T14:30:41.586Z,9.07
2022-11-27T14:33:24.685Z,11.25
2022-11-27T14:35:56.763Z,11.70
2022-11-27T14:38:25.975Z,14.57
2022-11-27T14:40:54.141Z,12.18
2022-11-27T14:43:26.373Z,6.93
2022-11-27T14:45:57.567Z,16.35
2022-11-27T14:48:41.526Z,17.85
2022-11-27T14:51:17.323Z,15.90
2022-11-27T14:53:49.802Z,14.30
2022-11-27T14:56:18.060Z,11.85
2022-11-27T14:58:52.322Z,18.80
2022-11-27T15:01:25.809Z,15.20
2022-11-27T15:04:05.567Z,13.68
2022-11-27T15:06:40.214Z,10.80
2022-11-27T15:09:30.696Z,13.82
2022-11-27T15:12:14.155Z,20.45
2022-11-27T15:14:51.705Z,15.00
2022-11-27T15:17:26.242Z,21.37
2022-11-27T15:19:55.588Z,15.35
2022-11-27T15:22:23.268Z,13.77
2022-11-27T15:25:01.111Z,13.88
2022-11-27T15:27:31.454Z,17.37
2022-11-27T15:30:07.353Z,16.77
2022-11-27T15:32:47.003Z,18.90
2022-11-27T15:35:15.964Z,19.65
2022-11-27T15:37:43.205Z,17.15
2022-11-27T15:40:27.071Z,22.95
2022-11-27T15:42:54.002Z,15.50
2022-11-27T15:45:21.358Z,15.35
2022-11-27T15:47:48.378Z,14.60
2022-11-27T15:50:16.512Z,19.77
2022-11-27T15:52:43.679Z,19.55
2022-11-27T15:55:17.751Z,11.85
2022-11-27T15:57:44.759Z,21.85
2022-11-27T16:00:13.167Z,16.80
2022-11-27T16:02:40.583Z,20.23
2022-11-27T16:05:08.966Z,17.40
2022-11-27T16:07:36.120Z,22.10
2022-11-27T16:10:03.738Z,23.27
2022-11-27T16:12:30.705Z,13.18
2022-11-27T16:14:57.727Z,17.65
2022-11-27T16:17:24.669Z,12.27
2022-11-27T16:19:51.703Z,17.20
2022-11-27T16:22:19.087Z,17.45
2022-11-27T16:24:45.993Z,13.95
2022-11-27T16:27:13.001Z,19.62
2022-11-27T16:29:39.957Z,16.42
2022-11-27T16:32:07.055Z,13.20
2022-11-27T16:34:34.017Z,17.55
2022-11-27T16:37:00.944Z,15.85
2022-11-27T16:39:28.489Z,14.05
2022-11-27T16:41:55.542Z,16.12
2022-11-27T16:44:22.478Z,12.32
2022-11-27T16:46:50.579Z,18.75
2022-11-27T16:49:17.647Z,12.65
2022-11-27T16:51:44.662Z,9.50
2022-11-27T16:54:13.342Z,18.95
2022-11-27T16:56:40.304Z,16.77
2022-11-27T16:59:09.485Z,14.73
2022-11-27T17:01:37.504Z,17.87
2022-11-27T17:04:09.096Z,10.63
2022-11-27T17:06:38.167Z,14.40
2022-11-27T17:09:07.638Z,14.25
2022-11-27T17:11:36.760Z,13.45
2022-11-27T17:14:06.809Z,19.60
2022-11-27T17:16:34.610Z,12.70
2022-11-27T17:19:01.712Z,19.70
2022-11-27T17:21:32.025Z,14.52
2022-11-27T17:24:01.309Z,14.32
2022-11-27T17:26:30.608Z,8.55
2022-11-27T17:28:57.905Z,10.27
2022-11-27T17:31:27.181Z,22.67
2022-11-27T17:33:56.785Z,22.90
2022-11-27T17:36:25.246Z,10.07
2022-11-27T17:38:53.588Z,13.65
2022-11-27T17:41:21.042Z,14.70
2022-11-27T17:43:48.515Z,12.10
2022-11-27T17:46:19.819Z,7.00
2022-11-27T17:48:46.881Z,15.38
2022-11-27T17:51:14.063Z,12.60
2022-11-27T17:53:40.992Z,5.55
2022-11-27T17:56:10.792Z,21.83
2022-11-27T17:58:38.255Z,22.92
2022-11-27T18:01:07.781Z,26.45
2022-11-27T18:03:35.013Z,28.23
2022-11-27T18:06:06.095Z,27.13
2022-11-27T18:08:33.601Z,24.80
2022-11-27T18:11:15.128Z,18.73
2022-11-27T18:13:42.322Z,33.28
2022-11-27T18:16:11.776Z,24.23
2022-11-27T18:18:39.293Z,23.08
2022-11-27T18:21:16.742Z,21.02
2022-11-27T18:24:20.776Z,10.18
2022-11-27T18:29:22.482Z,25.10
2022-11-27T18:31:51.110Z,17.92
2022-11-27T18:34:18.305Z,14.38
2022-11-27T18:36:46.059Z,17.85
2022-11-27T18:39:13.571Z,16.05
2022-11-27T18:41:41.079Z,23.85
2022-11-27T18:44:08.008Z,9.57
2022-11-27T18:46:35.154Z,15.15
2022-11-27T18:49:02.244Z,22.80
2022-11-27T18:51:29.198Z,15.18
2022-11-27T18:53:56.660Z,17.67
2022-11-27T18:56:26.848Z,25.75
2022-11-27T18:58:54.421Z,21.85
2022-11-27T19:01:27.575Z,21.92
2022-11-27T19:03:55.215Z,25.80
2022-11-27T19:06:23.967Z,33.42
2022-11-27T19:08:51.053Z,20.83
2022-11-27T19:11:21.856Z,28.42
2022-11-27T19:13:50.238Z,23.33
2022-11-27T19:16:23.107Z,18.92
2022-11-27T19:18:50.445Z,26.85
2022-11-27T19:21:22.924Z,29.73
2022-11-27T19:23:51.402Z,21.00
2022-11-27T19:26:23.755Z,22.17
2022-11-27T19:28:57.024Z,28.80
2022-11-27T19:31:25.077Z,27.95
2022-11-27T19:33:58.853Z,23.70
2022-11-27T19:36:26.377Z,26.00
2022-11-27T19:38:55.598Z,27.98
2022-11-27T19:41:23.129Z,26.08
2022-11-27T19:43:50.226Z,29.20
2022-11-27T19:46:22.827Z,25.62
2022-11-27T19:48:50.593Z,23.10
2022-11-27T19:51:18.488Z,24.45
2022-11-27T19:53:45.377Z,26.15
2022-11-27T19:56:12.511Z,20.10
2022-11-27T19:58:41.117Z,27.90
2022-11-27T20:01:10.788Z,23.80
2022-11-27T20:03:38.284Z,22.73
2022-11-27T20:06:08.998Z,19.23
2022-11-27T20:08:36.200Z,23.42
2022-11-27T20:11:04.554Z,21.95
2022-11-27T20:13:31.519Z,26.30
2022-11-27T20:15:58.413Z,28.02
2022-11-27T20:18:27.956Z,26.25
2022-11-27T20:21:17.066Z,23.48
2022-11-27T20:23:44.990Z,26.23
2022-11-27T20:26:15.635Z,22.55
2022-11-27T20:28:43.283Z,29.23
2022-11-27T20:31:16.437Z,20.15
2022-11-27T20:33:43.492Z,23.48
2022-11-27T20:36:14.409Z,23.27
2022-11-27T20:38:41.461Z,16.98
2022-11-27T20:41:10.534Z,16.17
2022-11-27T20:43:38.149Z,27.20
2022-11-27T20:46:05.773Z,19.87
2022-11-27T20:48:32.757Z,24.85
2022-11-27T20:51:11.320Z,21.42
2022-11-27T20:53:38.936Z,22.87
2022-11-27T20:56:08.004Z,30.65
2022-11-27T20:58:36.447Z,26.70
2022-11-27T21:01:12.809Z,24.25
2022-11-27T21:03:39.850Z,21.83
2022-11-27T21:06:07.871Z,15.77
2022-11-27T21:08:34.967Z,19.48
2022-11-27T21:11:13.408Z,23.95
2022-11-27T21:13:40.430Z,21.50
2022-11-27T21:16:11.975Z,16.90
2022-11-27T21:18:39.917Z,17.75
2022-11-27T21:21:13.769Z,24.75
2022-11-27T21:23:41.811Z,21.98
2022-11-27T21:26:09.771Z,24.67
2022-11-27T21:28:37.345Z,33.90
2022-11-27T21:31:11.097Z,22.08
2022-11-27T21:33:38.128Z,19.85
2022-11-27T21:36:07.498Z,20.12
2022-11-27T21:38:34.489Z,20.17
2022-11-27T21:41:01.531Z,18.37
2022-11-27T21:43:28.409Z,27.40
2022-11-27T21:45:55.391Z,22.48
2022-11-27T21:48:22.325Z,19.48
2022-11-27T21:50:49.310Z,21.95
2022-11-27T21:53:16.266Z,24.15
2022-11-27T21:55:43.514Z,21.40
2022-11-27T21:58:10.481Z,22.17
2022-11-27T22:00:37.628Z,25.95
2022-11-27T22:03:04.681Z,27.58
2022-11-27T22:05:31.572Z,21.02
2022-11-27T22:07:58.615Z,17.95
2022-11-27T22:10:25.746Z,21.73
2022-11-27T22:12:52.694Z,17.77
2022-11-27T22:15:19.777Z,17.62
2022-11-27T22:17:46.745Z,19.25
2022-11-27T22:20:14.482Z,18.10
2022-11-27T22:22:41.461Z,18.08
2022-11-27T22:25:08.774Z,23.45
2022-11-27T22:27:35.727Z,19.05
2022-11-27T22:30:02.634Z,20.88
2022-11-27T22:32:29.604Z,17.80
2022-11-27T22:34:56.482Z,28.52
2022-11-27T22:37:23.386Z,20.58
2022-11-27T22:39:50.487Z,20.50
2022-11-27T22:42:17.480Z,19.92
2022-11-27T22:44:44.683Z,20.23
2022-11-27T22:47:11.644Z,10.23
2022-11-27T22:49:38.512Z,18.35
2022-11-27T22:52:05.648Z,16.48
2022-11-27T22:54:32.536Z,21.10
2022-11-27T22:56:59.464Z,21.87
2022-11-27T22:59:34.502Z,16.42
2022-11-27T23:02:02.999Z,25.50
2022-11-27T23:04:30.223Z,21.20
2022-11-27T23:06:57.223Z,19.20
2022-11-27T23:09:24.176Z,25.27
2022-11-27T23:11:51.338Z,24.05
2022-11-27T23:14:18.519Z,20.62
2022-11-27T23:16:45.596Z,18.20
2022-11-27T23:19:12.558Z,25.20
2022-11-27T23:21:40.110Z,26.40
2022-11-27T23:24:09.835Z,25.70
2022-11-27T23:26:36.834Z,21.48
2022-11-27T23:29:04.457Z,17.92
2022-11-27T23:31:35.333Z,22.98
2022-11-27T23:34:05.305Z,19.08
2022-11-27T23:36:32.860Z,22.27
2022-11-27T23:39:01.111Z,27.85
2022-11-27T23:41:29.157Z,19.50
2022-11-27T23:43:56.683Z,21.65
2022-11-27T23:46:26.773Z,16.70
2022-11-27T23:48:55.002Z,20.98
2022-11-27T23:51:24.705Z,30.50
2022-11-27T23:53:52.661Z,22.58
2022-11-27T23:56:24.897Z,24.65
2022-11-27T23:58:52.503Z,22.23
